Time;durP1;ratioP1;P1;durP2;ratioP2;P2;SDS_P1;SDS_P2;PMS_P1;PMS_P2;Temp;Humidity;BMP_temperature;BMP_pressure;BME280_temperature;BME280_humidity;BME280_pressure;Samples;Min_cycle;Max_cycle;Signal;HPM_P1;HPM_P2
2023/08/22 00:01:00;;;;;;;8.85;6.05;;;;;;;17.65;92.17;101018.69;4956569;29;20122;-63
2023/08/22 00:03:25;;;;;;;5.43;4.93;;;;;;;17.64;91.21;101017.84;4956514;29;20078;-63
2023/08/22 00:05:50;;;;;;;7.60;5.40;;;;;;;17.61;90.92;101018.22;4956640;29;20726;-64
2023/08/22 00:08:16;;;;;;;8.02;5.43;;;;;;;17.59;90.83;101009.50;4956718;29;20035;-66
2023/08/22 00:10:41;;;;;;;6.60;5.93;;;;;;;17.58;91.26;101010.56;4954755;29;20183;-64
2023/08/22 00:13:07;;;;;;;6.40;5.03;;;;;;;17.64;91.38;101012.47;4957383;29;20162;-63
2023/08/22 00:15:32;;;;;;;6.70;6.00;;;;;;;17.63;91.84;101010.75;4959530;29;20035;-65
2023/08/22 00:17:58;;;;;;;10.25;5.20;;;;;;;17.62;91.97;101009.09;4957627;29;20062;-65
2023/08/22 00:20:23;;;;;;;6.47;4.85;;;;;;;17.56;91.86;100993.75;4956105;29;20031;-64
2023/08/22 00:22:49;;;;;;;7.30;5.35;;;;;;;17.61;92.14;100993.16;4956261;29;20047;-62
2023/08/22 00:25:14;;;;;;;5.68;4.95;;;;;;;17.57;92.14;100995.44;4956120;29;20030;-65
2023/08/22 00:27:40;;;;;;;6.40;5.05;;;;;;;17.59;91.93;100993.34;4955270;29;20027;-67
2023/08/22 00:30:07;;;;;;;8.75;5.50;;;;;;;17.63;92.30;101000.00;4956625;29;20062;-66
2023/08/22 00:32:32;;;;;;;11.15;6.22;;;;;;;17.64;92.75;100998.16;4956098;29;20471;-64
2023/08/22 00:34:58;;;;;;;9.57;6.45;;;;;;;17.54;93.26;100979.69;4955889;28;20042;-65
2023/08/22 00:37:24;;;;;;;8.90;6.03;;;;;;;17.61;93.87;100996.69;4955359;29;20031;-64
2023/08/22 00:39:50;;;;;;;14.25;6.70;;;;;;;17.58;94.44;100986.31;4955754;29;20035;-66
2023/08/22 00:42:15;;;;;;;5.95;5.15;;;;;;;17.60;95.10;100992.31;4956254;29;20028;-64
2023/08/22 00:44:41;;;;;;;4.90;4.40;;;;;;;17.55;95.18;100986.72;4955999;29;20035;-63
2023/08/22 00:47:07;;;;;;;7.35;5.07;;;;;;;16.96;95.51;100895.84;4955883;29;20449;-65
2023/08/22 00:49:33;;;;;;;5.93;5.10;;;;;;;17.54;95.68;100995.84;4955973;29;20074;-65
2023/08/22 00:52:01;;;;;;;6.47;5.80;;;;;;;17.51;96.44;100993.56;4955901;29;20507;-65
2023/08/22 00:54:29;;;;;;;12.98;6.68;;;;;;;16.84;96.88;100885.88;4955451;29;20468;-64
2023/08/22 00:56:55;;;;;;;7.93;5.45;;;;;;;17.43;97.77;100987.53;4955652;29;20171;-63
2023/08/22 00:59:22;;;;;;;6.55;5.95;;;;;;;17.42;97.82;100980.47;4956844;29;20125;-62
2023/08/22 01:01:47;;;;;;;5.93;5.32;;;;;;;17.32;98.43;100967.38;4956381;29;20068;-63
2023/08/22 01:04:13;;;;;;;7.65;5.18;;;;;;;17.07;98.93;100929.44;4955933;29;20035;-64
2023/08/22 01:06:50;;;;;;;10.38;5.72;;;;;;;17.29;99.39;100965.91;4955437;29;20050;-64
2023/08/22 01:09:29;;;;;;;8.30;4.80;;;;;;;17.37;100.00;100983.78;4955531;29;20043;-64
2023/08/22 01:12:11;;;;;;;7.25;4.82;;;;;;;17.38;100.00;100976.53;4955405;28;20047;-64
2023/08/22 01:14:43;;;;;;;7.20;6.00;;;;;;;17.36;100.00;100982.13;4955213;29;20031;-64
2023/08/22 01:17:11;;;;;;;7.57;5.38;;;;;;;17.34;100.00;100986.84;4955229;29;20387;-64
2023/08/22 01:19:37;;;;;;;7.70;5.63;;;;;;;17.25;100.00;100975.44;4955332;29;20062;-64
2023/08/22 01:22:03;;;;;;;8.02;5.93;;;;;;;17.26;100.00;100973.56;4955120;29;20110;-65
2023/08/22 01:24:28;;;;;;;6.57;5.40;;;;;;;17.20;100.00;100967.13;4954961;29;20455;-65
2023/08/22 01:26:54;;;;;;;7.15;5.43;;;;;;;17.25;100.00;100969.22;4955102;29;20158;-64
2023/08/22 01:29:42;;;;;;;10.50;6.40;;;;;;;17.32;100.00;100986.22;4954754;29;20093;-63
2023/08/22 01:32:23;;;;;;;9.45;6.82;;;;;;;17.17;100.00;100972.09;4954825;29;20098;-64
2023/08/22 01:34:53;;;;;;;7.65;6.85;;;;;;;17.19;100.00;100980.81;4955127;29;20046;-64
2023/08/22 01:37:22;;;;;;;7.57;6.65;;;;;;;17.11;100.00;100970.22;4954771;29;20127;-64
2023/08/22 01:39:48;;;;;;;11.30;6.60;;;;;;;17.17;100.00;100983.69;4954513;29;20403;-67
2023/08/22 01:42:14;;;;;;;8.43;6.40;;;;;;;17.08;100.00;100962.53;4954512;29;20036;-66
2023/08/22 01:44:40;;;;;;;10.60;7.28;;;;;;;17.09;100.00;100967.72;4954883;29;20031;-65
2023/08/22 01:47:05;;;;;;;12.38;7.68;;;;;;;17.07;100.00;100972.47;4954727;28;20113;-65
2023/08/22 01:49:35;;;;;;;9.32;7.03;;;;;;;17.12;100.00;100979.94;4954730;29;20398;-66
2023/08/22 01:52:01;;;;;;;9.25;5.72;;;;;;;17.15;100.00;100977.69;4954872;29;20035;-67
2023/08/22 01:54:26;;;;;;;7.80;6.20;;;;;;;17.10;100.00;100964.00;4954842;29;20038;-67
2023/08/22 01:56:52;;;;;;;9.52;7.32;;;;;;;17.19;100.00;100975.41;4954474;29;20118;-63
2023/08/22 01:59:17;;;;;;;8.05;5.75;;;;;;;17.15;100.00;100968.78;4954511;29;20459;-64
2023/08/22 02:01:43;;;;;;;10.77;7.18;;;;;;;16.99;100.00;100954.63;4954629;29;20031;-63
2023/08/22 02:04:08;;;;;;;14.18;7.90;;;;;;;17.03;100.00;100972.03;4954688;29;20027;-64
2023/08/22 02:06:34;;;;;;;18.50;9.50;;;;;;;16.98;100.00;100974.47;4955119;28;20028;-65
2023/08/22 02:08:59;;;;;;;21.10;8.27;;;;;;;16.67;100.00;100923.00;4956727;29;20390;-65
2023/08/22 02:11:27;;;;;;;26.63;8.95;;;;;;;16.86;100.00;100964.50;4956959;29;20051;-66
2023/08/22 02:13:53;;;;;;;17.20;8.32;;;;;;;16.81;100.00;100948.97;4955912;29;20046;-64
2023/08/22 02:16:18;;;;;;;18.73;8.50;;;;;;;16.79;100.00;100945.63;4956380;29;20047;-66
2023/08/22 02:18:44;;;;;;;14.05;6.65;;;;;;;16.78;100.00;100948.53;4954801;29;20507;-65
2023/08/22 02:21:09;;;;;;;15.70;7.07;;;;;;;16.88;100.00;100963.25;4955522;29;20039;-64
2023/08/22 02:23:35;;;;;;;16.15;7.40;;;;;;;16.79;100.00;100945.63;4956381;29;20058;-64
2023/08/22 02:26:00;;;;;;;11.18;6.50;;;;;;;16.77;100.00;100950.38;4956278;29;20027;-67
2023/08/22 02:28:26;;;;;;;8.98;7.10;;;;;;;16.79;100.00;100963.63;4954688;29;20042;-65
2023/08/22 02:30:55;;;;;;;8.43;6.13;;;;;;;16.72;100.00;100953.66;4954357;29;20031;-67
2023/08/22 02:33:21;;;;;;;7.70;6.05;;;;;;;16.69;100.00;100956.72;4953914;29;20498;-63
2023/08/22 02:35:46;;;;;;;10.25;6.32;;;;;;;16.61;100.00;100953.34;4954173;29;20023;-67
2023/08/22 02:38:12;;;;;;;10.40;5.88;;;;;;;16.63;100.00;100957.50;4954299;29;20023;-61
2023/08/22 02:40:37;;;;;;;12.35;5.75;;;;;;;16.51;100.00;100947.50;4955209;29;20034;-66
2023/08/22 02:43:03;;;;;;;8.27;6.10;;;;;;;16.58;100.00;100951.06;4954838;29;20142;-69
2023/08/22 02:45:29;;;;;;;14.32;6.65;;;;;;;16.56;100.00;100953.13;4955439;29;20162;-64
2023/08/22 02:47:54;;;;;;;9.13;6.32;;;;;;;16.48;100.00;100939.81;4954113;29;20111;-64
2023/08/22 02:50:23;;;;;;;11.43;7.28;;;;;;;16.37;100.00;100927.75;4954526;29;20079;-67
2023/08/22 02:52:52;;;;;;;10.70;6.45;;;;;;;16.46;100.00;100947.25;4954439;29;20074;-62
2023/08/22 02:55:17;;;;;;;14.97;6.77;;;;;;;16.45;100.00;100945.56;4954607;29;20061;-62
2023/08/22 02:57:44;;;;;;;11.68;7.00;;;;;;;16.41;100.00;100940.59;4954007;28;20031;-65
2023/08/22 03:00:11;;;;;;;10.88;7.68;;;;;;;16.38;100.00;100932.94;4958315;28;20213;-65
2023/08/22 03:02:37;;;;;;;11.30;6.53;;;;;;;16.25;100.00;100916.72;4957319;29;20028;-63
2023/08/22 03:05:06;;;;;;;9.55;6.25;;;;;;;16.36;100.00;100932.28;4958289;29;20074;-65
2023/08/22 03:07:32;;;;;;;9.45;6.80;;;;;;;16.36;100.00;100926.91;4960618;29;20039;-66
2023/08/22 03:09:57;;;;;;;9.43;6.50;;;;;;;16.40;100.00;100933.56;4960297;29;20038;-67
2023/08/22 03:12:23;;;;;;;9.88;7.97;;;;;;;16.35;100.00;100927.94;4960828;29;20402;-63
2023/08/22 03:14:48;;;;;;;12.60;7.45;;;;;;;16.32;100.00;100931.03;4958569;29;20031;-66
2023/08/22 03:17:14;;;;;;;14.30;6.63;;;;;;;16.31;100.00;100939.28;4960458;29;20093;-65
2023/08/22 03:19:39;;;;;;;8.77;6.82;;;;;;;16.19;100.00;100911.28;4961864;29;20410;-65
2023/08/22 03:22:04;;;;;;;7.30;6.53;;;;;;;16.27;100.00;100930.78;4960497;29;20038;-61
2023/08/22 03:24:30;;;;;;;7.97;6.30;;;;;;;16.27;100.00;100928.09;4960994;29;20023;-65
2023/08/22 03:26:56;;;;;;;11.73;6.53;;;;;;;16.28;100.00;100913.63;4961749;29;20126;-67
2023/08/22 03:29:22;;;;;;;8.90;6.60;;;;;;;16.35;100.00;100914.50;4960821;29;20499;-65
2023/08/22 03:31:47;;;;;;;9.80;6.72;;;;;;;16.48;100.00;100929.06;4960915;29;20067;-66
2023/08/22 03:34:12;;;;;;;11.95;6.97;;;;;;;16.40;100.00;100906.69;4960570;29;20116;-64
2023/08/22 03:36:38;;;;;;;10.48;6.25;;;;;;;16.47;100.00;100922.00;4962885;29;20027;-63
2023/08/22 03:39:03;;;;;;;8.10;6.15;;;;;;;16.41;100.00;100919.09;4959193;29;20121;-65
2023/08/22 03:41:29;;;;;;;11.93;6.73;;;;;;;16.37;100.00;100912.44;4957651;28;20039;-64
2023/08/22 03:43:54;;;;;;;10.65;6.47;;;;;;;16.49;100.00;100928.88;4957438;29;20023;-64
2023/08/22 03:46:20;;;;;;;7.35;6.57;;;;;;;16.51;100.00;100924.13;4957217;29;20371;-65
2023/08/22 03:48:45;;;;;;;8.88;7.38;;;;;;;16.48;100.00;100929.91;4957616;29;20467;-65
2023/08/22 03:51:11;;;;;;;8.52;6.25;;;;;;;16.49;100.00;100925.38;4957740;29;20122;-64
2023/08/22 03:53:37;;;;;;;7.65;6.10;;;;;;;16.53;100.00;100929.31;4939836;29;20031;-63
2023/08/22 03:56:03;;;;;;;8.23;6.55;;;;;;;16.57;100.00;100923.34;4957242;29;20023;-63
2023/08/22 03:58:28;;;;;;;8.03;7.07;;;;;;;16.59;100.00;100915.91;4956867;29;20078;-66
2023/08/22 04:00:55;;;;;;;7.53;6.75;;;;;;;16.64;100.00;100912.63;4940235;29;20471;-64
2023/08/22 04:03:20;;;;;;;8.90;7.47;;;;;;;16.75;100.00;100924.69;4956228;29;20102;-65
2023/08/22 04:05:46;;;;;;;9.90;6.57;;;;;;;16.66;100.00;100929.41;4956511;29;20468;-67
2023/08/22 04:08:11;;;;;;;11.27;7.22;;;;;;;16.64;100.00;100928.75;4955236;29;20151;-65
2023/08/22 04:10:37;;;;;;;9.80;7.65;;;;;;;16.58;100.00;100922.31;4955567;28;20059;-64
2023/08/22 04:13:03;;;;;;;9.63;7.33;;;;;;;16.58;100.00;100934.94;4956841;29;20039;-65
2023/08/22 04:15:28;;;;;;;8.43;7.47;;;;;;;16.47;100.00;100919.31;4956203;29;20035;-66
2023/08/22 04:17:54;;;;;;;8.95;7.45;;;;;;;16.57;100.00;100933.25;4956224;29;20391;-64
2023/08/22 04:20:19;;;;;;;7.80;6.80;;;;;;;16.57;100.00;100926.03;4956169;29;20035;-67
2023/08/22 04:22:45;;;;;;;11.47;7.53;;;;;;;16.59;100.00;100923.13;4954829;29;20122;-64
2023/08/22 04:25:11;;;;;;;9.63;7.00;;;;;;;16.62;100.00;100926.25;4956489;29;20110;-64
2023/08/22 04:27:37;;;;;;;11.65;7.53;;;;;;;16.54;100.00;100921.06;4954964;29;20039;-66
2023/08/22 04:30:04;;;;;;;12.20;7.65;;;;;;;16.59;100.00;100931.22;4956845;29;20034;-66
2023/08/22 04:32:30;;;;;;;10.20;7.22;;;;;;;16.47;100.00;100905.88;4956055;29;20439;-63
2023/08/22 04:34:56;;;;;;;11.23;8.00;;;;;;;16.07;100.00;100841.97;4955969;29;20031;-67
2023/08/22 04:37:21;;;;;;;10.90;7.88;;;;;;;16.63;100.00;100909.09;4955949;29;20027;-65
2023/08/22 04:39:47;;;;;;;12.48;7.65;;;;;;;16.71;100.00;100925.09;4956049;29;20460;-66
2023/08/22 04:42:12;;;;;;;9.00;7.82;;;;;;;16.53;100.00;100899.75;4955819;29;20035;-64
2023/08/22 04:44:38;;;;;;;12.38;7.07;;;;;;;16.73;100.00;100928.41;4955923;29;20037;-66
2023/08/22 04:47:04;;;;;;;10.13;7.90;;;;;;;16.69;100.00;100911.03;4955835;29;20066;-64
2023/08/22 04:49:29;;;;;;;10.02;7.70;;;;;;;16.85;100.00;100923.31;4955696;29;20043;-63
2023/08/22 04:51:55;;;;;;;10.38;7.53;;;;;;;16.79;100.00;100905.28;4955406;29;20118;-69
2023/08/22 04:54:20;;;;;;;9.55;8.43;;;;;;;16.90;100.00;100902.03;4955708;29;20431;-63
2023/08/22 04:56:46;;;;;;;10.30;8.60;;;;;;;16.75;100.00;100871.72;4955689;29;20306;-67
2023/08/22 04:59:11;;;;;;;11.25;7.93;;;;;;;17.08;100.00;100916.81;4955647;29;20042;-65
2023/08/22 05:01:36;;;;;;;10.80;8.23;;;;;;;17.04;100.00;100914.47;4955481;29;20031;-65
2023/08/22 05:04:02;;;;;;;12.80;9.23;;;;;;;17.10;100.00;100917.44;4955737;29;20058;-64
2023/08/22 05:06:28;;;;;;;13.25;9.32;;;;;;;16.96;100.00;100903.91;4954348;29;20035;-62
2023/08/22 05:08:53;;;;;;;12.30;9.20;;;;;;;17.04;100.00;100911.78;4956534;28;20435;-66
2023/08/22 05:11:22;;;;;;;13.88;9.95;;;;;;;17.02;100.00;100910.34;4955982;29;20347;-64
2023/08/22 05:13:48;;;;;;;15.57;9.75;;;;;;;16.99;100.00;100903.50;4955253;29;20059;-68
2023/08/22 05:16:13;;;;;;;21.60;10.57;;;;;;;17.03;100.00;100901.22;4955196;29;20031;-65
2023/08/22 05:18:39;;;;;;;26.25;13.05;;;;;;;17.12;100.00;100907.28;4955117;29;20133;-63
2023/08/22 05:21:04;;;;;;;23.58;12.65;;;;;;;17.17;100.00;100902.94;4954935;29;20029;-63
2023/08/22 05:23:30;;;;;;;25.48;12.32;;;;;;;17.18;100.00;100891.16;4954946;28;20038;-63
2023/08/22 05:25:56;;;;;;;32.80;15.23;;;;;;;17.26;100.00;100890.13;4955136;29;20037;-63
2023/08/22 05:28:21;;;;;;;26.13;13.85;;;;;;;17.42;100.00;100905.91;4955145;29;20049;-66
2023/08/22 05:30:46;;;;;;;29.73;13.82;;;;;;;17.52;100.00;100900.97;4955222;29;20399;-64
2023/08/22 05:33:12;;;;;;;24.85;13.57;;;;;;;17.70;100.00;100910.34;4955539;29;20034;-62
2023/08/22 05:35:37;;;;;;;20.75;13.27;;;;;;;17.79;100.00;100901.03;4955707;29;20019;-65
2023/08/22 05:38:03;;;;;;;25.10;13.68;;;;;;;17.82;100.00;100900.63;4955908;29;20088;-63
2023/08/22 05:40:29;;;;;;;28.67;13.35;;;;;;;17.85;100.00;100909.09;4954244;28;20031;-66
2023/08/22 05:42:55;;;;;;;20.60;12.30;;;;;;;17.88;100.00;100905.16;4956063;29;20357;-66
2023/08/22 05:45:20;;;;;;;28.50;12.55;;;;;;;17.89;100.00;100904.13;4958368;29;20131;-64
2023/08/22 05:47:46;;;;;;;22.65;12.82;;;;;;;17.98;100.00;100905.59;4956516;29;20030;-65
2023/08/22 05:50:11;;;;;;;24.40;13.88;;;;;;;18.00;100.00;100911.59;4954680;29;20027;-66
2023/08/22 05:52:37;;;;;;;24.80;11.75;;;;;;;17.93;100.00;100908.09;4953536;29;20471;-64
2023/08/22 05:55:03;;;;;;;21.83;10.77;;;;;;;17.90;100.00;100914.69;4954755;29;20379;-65
2023/08/22 05:57:29;;;;;;;17.40;10.73;;;;;;;17.88;100.00;100921.34;4953593;29;20027;-66
2023/08/22 05:59:55;;;;;;;16.48;9.82;;;;;;;17.78;100.00;100916.38;4954404;29;20031;-64
2023/08/22 06:02:21;;;;;;;19.00;12.52;;;;;;;17.78;100.00;100915.53;4954829;29;20031;-66
2023/08/22 06:04:46;;;;;;;12.05;9.52;;;;;;;17.67;100.00;100916.97;4954235;29;20527;-67
2023/08/22 06:07:13;;;;;;;16.90;9.15;;;;;;;17.57;100.00;100898.47;4954415;29;20115;-65
2023/08/22 06:09:38;;;;;;;12.15;8.45;;;;;;;17.63;100.00;100911.13;4954351;29;20121;-62
2023/08/22 06:12:06;;;;;;;14.57;9.15;;;;;;;17.57;100.00;100898.47;4954270;29;20043;-66
2023/08/22 06:14:31;;;;;;;14.73;8.40;;;;;;;17.73;100.00;100909.94;4954399;29;20073;-66
2023/08/22 06:16:58;;;;;;;11.52;7.75;;;;;;;17.57;100.00;100871.56;4954359;29;20118;-66
2023/08/22 06:19:24;;;;;;;15.27;8.43;;;;;;;17.80;100.00;100913.47;4952546;29;20391;-65
2023/08/22 06:21:50;;;;;;;12.82;8.05;;;;;;;17.80;100.00;100908.06;4954150;29;20082;-67
2023/08/22 06:24:15;;;;;;;15.48;10.13;;;;;;;17.79;98.70;100893.78;4954186;29;20023;-68
2023/08/22 06:26:41;;;;;;;16.45;7.80;;;;;;;17.72;99.02;100878.66;4954004;29;20023;-71
2023/08/22 06:29:06;;;;;;;10.98;7.85;;;;;;;17.80;97.75;100905.38;4954074;29;20019;-68
2023/08/22 06:31:32;;;;;;;14.85;8.48;;;;;;;17.79;98.33;100901.84;4952706;29;20023;-65
2023/08/22 06:33:57;;;;;;;14.30;7.10;;;;;;;17.81;96.73;100894.41;4953305;28;20027;-65
2023/08/22 06:36:23;;;;;;;19.73;10.20;;;;;;;17.72;97.78;100878.66;4953979;29;20031;-68
2023/08/22 06:38:48;;;;;;;13.02;8.05;;;;;;;17.77;97.22;100893.16;4953898;29;20034;-65
2023/08/22 06:41:16;;;;;;;14.50;7.88;;;;;;;17.68;97.52;100877.41;4954306;29;20061;-67
2023/08/22 06:43:42;;;;;;;14.50;7.90;;;;;;;17.68;97.08;100897.09;4952655;29;20027;-67
2023/08/22 06:46:07;;;;;;;12.70;7.75;;;;;;;17.57;96.94;100887.72;4954002;29;20042;-66
2023/08/22 06:48:33;;;;;;;10.55;7.70;;;;;;;17.56;96.03;100899.50;4954252;29;20062;-66
2023/08/22 06:50:58;;;;;;;16.17;9.20;;;;;;;17.53;97.14;100902.63;4952392;29;20035;-68
2023/08/22 06:53:24;;;;;;;16.95;8.20;;;;;;;17.24;97.87;100859.91;4952461;29;20063;-70
2023/08/22 06:55:49;;;;;;;16.52;8.80;;;;;;;17.49;98.47;100912.16;4954258;29;20090;-71
2023/08/22 06:58:14;;;;;;;12.90;7.68;;;;;;;17.49;100.00;100909.44;4953838;29;20038;-68
2023/08/22 07:00:40;;;;;;;15.90;8.02;;;;;;;17.32;99.70;100894.69;4953985;29;20042;-71
2023/08/22 07:03:06;;;;;;;12.80;7.57;;;;;;;17.42;99.43;100908.63;4953641;29;20047;-65
2023/08/22 07:05:34;;;;;;;16.20;7.28;;;;;;;17.45;100.00;100905.50;4953541;29;20038;-66
2023/08/22 07:07:59;;;;;;;11.30;7.20;;;;;;;17.50;100.00;100911.09;4953731;29;20376;-67
2023/08/22 07:10:25;;;;;;;11.52;7.60;;;;;;;17.55;100.00;100905.09;4953834;29;20051;-67
2023/08/22 07:12:50;;;;;;;11.38;7.28;;;;;;;17.49;100.00;100903.25;4953813;29;20039;-68
2023/08/22 07:15:16;;;;;;;11.27;7.47;;;;;;;17.57;100.00;100919.19;4954176;29;20032;-66
2023/08/22 07:17:41;;;;;;;16.98;8.48;;;;;;;17.51;100.00;100896.63;4953634;29;20027;-67
2023/08/22 07:20:07;;;;;;;15.63;7.93;;;;;;;17.63;100.00;100913.81;4952727;29;20495;-65
2023/08/22 07:22:33;;;;;;;15.73;7.40;;;;;;;17.34;99.63;100871.09;4951144;29;20050;-67
2023/08/22 07:24:59;;;;;;;21.40;8.93;;;;;;;17.54;100.00;100898.88;4952204;29;20471;-66
2023/08/22 07:27:24;;;;;;;14.05;7.00;;;;;;;16.92;100.00;100803.13;4952426;29;20137;-68
2023/08/22 07:29:50;;;;;;;13.70;8.13;;;;;;;17.69;100.00;100906.84;4956548;29;20035;-67
2023/08/22 07:32:15;;;;;;;19.65;7.95;;;;;;;17.80;100.00;100913.47;4958438;29;20471;-66
2023/08/22 07:34:41;;;;;;;17.15;7.00;;;;;;;17.84;100.00;100893.16;4955042;29;20096;-66
2023/08/22 07:37:06;;;;;;;20.20;8.35;;;;;;;17.90;100.00;100881.53;4953351;29;20035;-68
2023/08/22 07:39:32;;;;;;;21.45;7.30;;;;;;;18.04;100.00;100893.97;4952446;28;20035;-69
2023/08/22 07:41:57;;;;;;;17.45;7.25;;;;;;;18.14;100.00;100907.84;4955041;29;20051;-68
2023/08/22 07:44:25;;;;;;;23.65;8.10;;;;;;;18.09;99.59;100898.75;4961928;29;20039;-66
2023/08/22 07:46:51;;;;;;;15.70;7.90;;;;;;;18.09;100.00;100891.50;4962739;28;20027;-66
2023/08/22 07:49:16;;;;;;;15.05;6.45;;;;;;;18.13;98.97;100881.13;4973213;29;20034;-64
2023/08/22 07:51:42;;;;;;;24.48;8.15;;;;;;;18.27;98.80;100890.84;4973568;29;20414;-66
2023/08/22 07:54:07;;;;;;;23.25;8.25;;;;;;;18.49;99.72;100892.25;4963751;29;20033;-67
2023/08/22 07:56:34;;;;;;;16.83;9.18;;;;;;;18.70;99.74;100888.50;4962710;29;20063;-68
2023/08/22 07:59:00;;;;;;;15.35;9.40;;;;;;;18.86;98.47;100892.59;4959014;29;20216;-65
2023/08/22 08:01:26;;;;;;;16.70;10.20;;;;;;;18.89;97.33;100884.06;4959218;29;20038;-64
2023/08/22 08:03:51;;;;;;;13.25;10.27;;;;;;;18.96;96.03;100886.72;4961534;29;20031;-66
2023/08/22 08:06:17;;;;;;;16.23;10.38;;;;;;;19.03;97.99;100892.91;4961768;29;20035;-63
2023/08/22 08:08:42;;;;;;;25.60;10.98;;;;;;;19.08;97.72;100901.19;4960261;29;20027;-65
2023/08/22 08:11:08;;;;;;;20.98;10.70;;;;;;;18.75;96.56;100848.19;4961117;29;20051;-63
2023/08/22 08:13:33;;;;;;;19.20;9.63;;;;;;;18.89;95.90;100873.28;4963611;29;20039;-63
2023/08/22 08:15:59;;;;;;;24.85;9.75;;;;;;;19.06;95.11;100887.09;4958824;29;20378;-64
2023/08/22 08:18:24;;;;;;;15.35;9.32;;;;;;;19.00;93.75;100861.78;4960112;29;20063;-67
2023/08/22 08:20:51;;;;;;;14.07;8.30;;;;;;;19.04;92.59;100886.47;4958468;29;20053;-67
2023/08/22 08:23:16;;;;;;;13.18;9.50;;;;;;;18.81;94.80;100866.25;4959886;29;20031;-65
2023/08/22 08:25:42;;;;;;;19.65;8.68;;;;;;;18.83;96.01;100888.47;4961365;29;20031;-65
2023/08/22 08:28:07;;;;;;;16.90;10.32;;;;;;;18.75;96.60;100880.56;4961315;29;20031;-67
2023/08/22 08:30:33;;;;;;;16.85;9.45;;;;;;;18.57;97.52;100845.34;4967093;29;20165;-65
2023/08/22 08:33:01;;;;;;;21.55;10.40;;;;;;;18.76;95.58;100884.09;4964180;29;20067;-66
2023/08/22 08:35:27;;;;;;;16.95;8.82;;;;;;;18.64;95.81;100843.47;4967927;29;20023;-65
2023/08/22 08:37:53;;;;;;;14.30;9.13;;;;;;;18.99;95.02;100881.72;4968003;29;20066;-65
2023/08/22 08:40:18;;;;;;;18.17;9.15;;;;;;;19.18;94.79;100879.97;4964617;29;20035;-67
2023/08/22 08:42:45;;;;;;;23.60;9.90;;;;;;;19.29;93.56;100865.78;4956051;29;20380;-65
2023/08/22 08:45:13;;;;;;;15.70;7.45;;;;;;;19.39;91.14;100870.72;4954492;29;20470;-66
2023/08/22 08:47:39;;;;;;;15.38;8.48;;;;;;;19.53;91.84;100877.72;4955944;29;20027;-66
2023/08/22 08:50:08;;;;;;;16.33;8.80;;;;;;;19.63;91.46;100864.53;4955797;29;20027;-66
2023/08/22 08:52:35;;;;;;;15.15;8.35;;;;;;;19.82;89.99;100860.03;4955505;29;20027;-65
2023/08/22 08:55:04;;;;;;;16.90;9.43;;;;;;;20.01;89.58;100869.84;4955531;29;20105;-64
2023/08/22 08:57:30;;;;;;;26.33;8.63;;;;;;;20.19;87.90;100868.22;4955147;28;20090;-64
2023/08/22 08:59:56;;;;;;;13.40;7.25;;;;;;;20.28;87.44;100875.84;4955355;29;20043;-64
2023/08/22 09:02:21;;;;;;;16.08;7.40;;;;;;;20.29;87.30;100880.19;4955748;29;20042;-65
2023/08/22 09:04:47;;;;;;;13.70;6.80;;;;;;;20.21;86.34;100871.53;4954295;29;20074;-66
2023/08/22 09:07:13;;;;;;;14.63;7.13;;;;;;;20.16;87.25;100876.78;4955285;29;20031;-64
2023/08/22 09:09:39;;;;;;;16.42;7.18;;;;;;;20.02;87.61;100859.88;4955636;29;20038;-66
2023/08/22 09:12:07;;;;;;;15.40;5.78;;;;;;;20.00;87.94;100883.59;4955271;29;20043;-65
2023/08/22 09:14:33;;;;;;;9.32;5.68;;;;;;;19.84;87.64;100867.91;4955158;29;20031;-67
2023/08/22 09:17:01;;;;;;;8.15;6.30;;;;;;;19.88;88.12;100878.06;4955475;29;20035;-67
2023/08/22 09:19:31;;;;;;;13.82;6.20;;;;;;;19.89;88.69;100868.91;4955307;29;20058;-65
2023/08/22 09:21:58;;;;;;;11.85;6.13;;;;;;;19.90;90.04;100862.44;4955071;29;20068;-64
2023/08/22 09:24:25;;;;;;;13.00;7.72;;;;;;;19.92;90.23;100854.13;4955291;29;20034;-68
2023/08/22 09:26:51;;;;;;;13.60;7.38;;;;;;;20.03;89.72;100856.13;4955051;29;20379;-66
2023/08/22 09:29:25;;;;;;;16.92;6.50;;;;;;;20.05;89.46;100876.47;4954899;29;20030;-67
2023/08/22 09:31:51;;;;;;;15.38;6.80;;;;;;;20.03;92.40;100872.34;4955110;29;20027;-67
2023/08/22 09:34:17;;;;;;;16.88;6.35;;;;;;;19.79;93.17;100865.88;4954976;29;20050;-67
2023/08/22 09:36:45;;;;;;;16.83;6.90;;;;;;;19.52;95.52;100876.03;4954865;29;20467;-64
2023/08/22 09:39:16;;;;;;;;;;;;;;;19.14;97.88;100873.38;4955039;29;20046;-66
2023/08/22 09:41:42;;;;;;;13.07;7.13;;;;;;;18.79;100.00;100881.84;4954727;29;20009;-66
2023/08/22 09:44:10;;;;;;;12.88;7.55;;;;;;;18.60;100.00;100888.09;4954635;29;20432;-66
2023/08/22 09:46:38;;;;;;;10.95;7.25;;;;;;;18.31;100.00;100875.91;4954720;29;20510;-66
2023/08/22 09:49:07;;;;;;;11.57;6.65;;;;;;;18.06;100.00;100877.59;4954772;29;20027;-64
2023/08/22 09:51:33;;;;;;;19.10;7.05;;;;;;;17.88;100.00;100876.34;4954674;29;20054;-63
2023/08/22 09:54:00;;;;;;;12.40;7.10;;;;;;;17.80;100.00;100875.75;4954283;29;20119;-65
2023/08/22 09:56:26;;;;;;;11.05;7.53;;;;;;;17.60;100.00;100838.00;4954588;29;20023;-65
2023/08/22 09:58:55;;;;;;;10.25;6.20;;;;;;;17.89;100.00;100863.72;4954493;29;20019;-65
2023/08/22 10:01:21;;;;;;;12.93;7.28;;;;;;;17.89;100.00;100842.16;4954515;29;20145;-65
2023/08/22 10:03:50;;;;;;;14.43;7.95;;;;;;;17.96;100.00;100837.63;4954495;29;20034;-65
2023/08/22 10:06:15;;;;;;;13.45;7.20;;;;;;;18.26;100.00;100864.94;4954586;29;20058;-66
2023/08/22 10:08:42;;;;;;;11.02;7.85;;;;;;;18.16;100.00;100840.25;4954059;28;20070;-66
2023/08/22 10:11:11;;;;;;;14.27;8.98;;;;;;;18.38;100.00;100870.50;4954236;29;20059;-64
2023/08/22 10:13:38;;;;;;;12.30;7.40;;;;;;;18.42;100.00;100877.94;4954277;29;20034;-67
2023/08/22 10:16:04;;;;;;;14.77;8.45;;;;;;;18.46;100.00;100889.97;4952772;29;20031;-67
2023/08/22 10:18:29;;;;;;;8.40;6.72;;;;;;;18.36;100.00;100880.66;4954345;29;20034;-65
2023/08/22 10:20:56;;;;;;;15.15;7.90;;;;;;;18.05;100.00;100884.03;4954111;29;20223;-64
2023/08/22 10:23:40;;;;;;;8.43;6.45;;;;;;;17.72;100.00;100870.56;4954032;29;20420;-64
2023/08/22 10:26:05;;;;;;;12.90;6.90;;;;;;;17.43;100.00;100869.88;4953041;29;20062;-65
2023/08/22 10:28:41;;;;;;;10.15;6.65;;;;;;;17.37;100.00;100865.31;4954144;29;20054;-67
2023/08/22 10:31:06;;;;;;;11.93;7.63;;;;;;;17.33;100.00;100869.44;4954153;29;20057;-65
2023/08/22 10:33:32;;;;;;;10.13;7.38;;;;;;;17.32;100.00;100875.84;4954202;29;20062;-66
2023/08/22 10:36:22;;;;;;;14.80;8.30;;;;;;;17.51;100.00;100888.53;4953945;29;20054;-65
2023/08/22 10:38:52;;;;;;;10.48;7.63;;;;;;;17.58;100.00;100883.97;4953789;28;20066;-64
2023/08/22 10:41:21;;;;;;;10.57;8.68;;;;;;;17.69;100.00;100889.84;4954184;29;20027;-65
2023/08/22 10:43:47;;;;;;;13.65;8.07;;;;;;;17.79;100.00;100876.78;4954004;29;20032;-65
2023/08/22 10:46:14;;;;;;;17.95;7.63;;;;;;;17.91;100.00;100880.50;4954011;29;20039;-65
2023/08/22 10:48:39;;;;;;;14.70;7.85;;;;;;;17.99;100.00;100874.94;4953535;29;20386;-64
2023/08/22 10:51:07;;;;;;;12.38;7.57;;;;;;;17.97;100.00;100852.75;4954168;29;20035;-65
2023/08/22 10:53:52;;;;;;;11.20;8.02;;;;;;;18.26;100.00;100860.38;4952898;29;20628;-63
2023/08/22 10:56:25;;;;;;;11.25;7.45;;;;;;;18.58;100.00;100879.38;4954090;29;20031;-66
2023/08/22 10:58:58;;;;;;;10.77;8.00;;;;;;;18.90;100.00;100893.00;4953961;29;20097;-64
2023/08/22 11:01:24;;;;;;;13.02;7.88;;;;;;;19.18;100.00;100858.38;4954349;29;20035;-64
2023/08/22 11:03:51;;;;;;;9.05;6.32;;;;;;;19.36;100.00;100858.47;4955593;29;20046;-65
2023/08/22 11:06:18;;;;;;;9.68;6.18;;;;;;;19.56;100.00;100879.16;4955674;29;20118;-65
2023/08/22 11:08:45;;;;;;;10.13;7.22;;;;;;;19.57;100.00;100873.53;4954292;29;20062;-65
2023/08/22 11:11:13;;;;;;;10.27;7.32;;;;;;;19.65;100.00;100867.03;4953653;29;20509;-64